sensor_id;sensor_type;location;lat;lon;timestamp;pressure;altitude;pressure_sealevel;temperature;humidity
46942;BME280;32676;52.630;4.896;2022-10-22T00:00:12;101229.88;;;13.94;87.95
46942;BME280;32676;52.630;4.896;2022-10-22T00:02:40;101214.44;;;13.83;87.87
46942;BME280;32676;52.630;4.896;2022-10-22T00:05:07;101211.53;;;13.90;88.06
46942;BME280;32676;52.630;4.896;2022-10-22T00:07:34;101215.13;;;13.89;87.98
46942;BME280;32676;52.630;4.896;2022-10-22T00:10:02;101215.06;;;13.90;88.21
46942;BME280;32676;52.630;4.896;2022-10-22T00:12:30;101194.09;;;13.86;88.21
46942;BME280;32676;52.630;4.896;2022-10-22T00:14:56;101203.75;;;13.87;87.90
46942;BME280;32676;52.630;4.896;2022-10-22T00:17:23;101192.41;;;13.85;88.31
46942;BME280;32676;52.630;4.896;2022-10-22T00:19:50;101190.78;;;13.80;88.22
46942;BME280;32676;52.630;4.896;2022-10-22T00:22:17;101192.41;;;13.85;87.80
46942;BME280;32676;52.630;4.896;2022-10-22T00:24:43;101188.97;;;13.82;88.06
46942;BME280;32676;52.630;4.896;2022-10-22T00:27:10;101192.41;;;13.85;88.00
46942;BME280;32676;52.630;4.896;2022-10-22T00:29:39;101189.81;;;13.83;88.00
46942;BME280;32676;52.630;4.896;2022-10-22T00:32:06;101189.81;;;13.83;88.11
46942;BME280;32676;52.630;4.896;2022-10-22T00:34:33;101165.31;;;13.79;87.92
46942;BME280;32676;52.630;4.896;2022-10-22T00:36:59;101160.94;;;13.78;87.68
46942;BME280;32676;52.630;4.896;2022-10-22T00:39:26;101152.22;;;13.76;88.00
46942;BME280;32676;52.630;4.896;2022-10-22T00:41:55;101151.31;;;13.77;88.09
46942;BME280;32676;52.630;4.896;2022-10-22T00:47:28;101140.06;;;13.72;88.16
46942;BME280;32676;52.630;4.896;2022-10-22T00:49:56;101139.22;;;13.72;88.17
46942;BME280;32676;52.630;4.896;2022-10-22T00:52:24;101124.34;;;13.69;88.29
46942;BME280;32676;52.630;4.896;2022-10-22T00:54:51;101111.19;;;13.68;88.25
46942;BME280;32676;52.630;4.896;2022-10-22T00:57:19;101107.69;;;13.67;88.27
46942;BME280;32676;52.630;4.896;2022-10-22T00:59:46;101108.63;;;13.66;88.07
46942;BME280;32676;52.630;4.896;2022-10-22T01:02:13;101112.19;;;13.65;88.26
46942;BME280;32676;52.630;4.896;2022-10-22T01:04:41;101108.63;;;13.66;88.18
46942;BME280;32676;52.630;4.896;2022-10-22T01:07:14;101109.47;;;13.67;88.44
46942;BME280;32676;52.630;4.896;2022-10-22T01:09:46;101116.47;;;13.68;88.48
46942;BME280;32676;52.630;4.896;2022-10-22T01:12:20;101109.66;;;13.62;88.76
46942;BME280;32676;52.630;4.896;2022-10-22T01:15:00;101126.97;;;13.69;88.79
46942;BME280;32676;52.630;4.896;2022-10-22T01:17:33;101131.28;;;13.72;88.90
46942;BME280;32676;52.630;4.896;2022-10-22T01:20:12;101127.75;;;13.71;88.59
46942;BME280;32676;52.630;4.896;2022-10-22T01:22:48;101140.06;;;13.72;88.71
46942;BME280;32676;52.630;4.896;2022-10-22T01:25:27;101133.03;;;13.71;88.72
46942;BME280;32676;52.630;4.896;2022-10-22T01:28:04;101143.50;;;13.74;88.97
46942;BME280;32676;52.630;4.896;2022-10-22T01:30:37;101159.22;;;13.77;89.03
46942;BME280;32676;52.630;4.896;2022-10-22T01:33:06;101155.66;;;13.78;88.98
46942;BME280;32676;52.630;4.896;2022-10-22T01:35:37;101163.63;;;13.77;88.83
46942;BME280;32676;52.630;4.896;2022-10-22T01:38:08;101180.22;;;13.80;88.70
46942;BME280;32676;52.630;4.896;2022-10-22T01:40:36;101185.50;;;13.80;88.90
46942;BME280;32676;52.630;4.896;2022-10-22T01:43:05;101194.09;;;13.86;89.08
46942;BME280;32676;52.630;4.896;2022-10-22T01:45:33;101206.41;;;13.87;88.87
46942;BME280;32676;52.630;4.896;2022-10-22T01:48:12;101193.50;;;13.79;88.93
46942;BME280;32676;52.630;4.896;2022-10-22T01:51:02;101200.19;;;13.88;88.76
46942;BME280;32676;52.630;4.896;2022-10-22T01:53:37;101208.19;;;13.86;88.82
46942;BME280;32676;52.630;4.896;2022-10-22T01:56:12;101212.47;;;13.89;88.98
46942;BME280;32676;52.630;4.896;2022-10-22T01:58:50;101226.50;;;13.91;88.80
46942;BME280;32676;52.630;4.896;2022-10-22T02:01:25;101222.94;;;13.92;89.01
46942;BME280;32676;52.630;4.896;2022-10-22T02:04:02;101234.31;;;13.94;88.80
46942;BME280;32676;52.630;4.896;2022-10-22T02:06:32;101243.94;;;13.95;89.19
46942;BME280;32676;52.630;4.896;2022-10-22T02:09:00;101244.81;;;13.95;89.04
46942;BME280;32676;52.630;4.896;2022-10-22T02:11:27;101251.75;;;13.98;89.27
46942;BME280;32676;52.630;4.896;2022-10-22T02:13:58;101258.75;;;13.99;88.78
46942;BME280;32676;52.630;4.896;2022-10-22T02:16:29;101265.75;;;14.00;88.92
46942;BME280;32676;52.630;4.896;2022-10-22T02:19:01;101276.22;;;14.03;89.26
46942;BME280;32676;52.630;4.896;2022-10-22T02:21:30;101280.69;;;14.01;88.77
46942;BME280;32676;52.630;4.896;2022-10-22T02:23:57;101280.50;;;14.06;88.69
46942;BME280;32676;52.630;4.896;2022-10-22T02:26:30;101290.22;;;14.05;88.87
46942;BME280;32676;52.630;4.896;2022-10-22T02:29:02;101298.84;;;14.10;88.88
46942;BME280;32676;52.630;4.896;2022-10-22T02:31:34;101312.00;;;14.12;88.63
46942;BME280;32676;52.630;4.896;2022-10-22T02:34:06;101326.84;;;14.14;88.58
46942;BME280;32676;52.630;4.896;2022-10-22T02:36:35;101340.88;;;14.16;88.62
46942;BME280;32676;52.630;4.896;2022-10-22T02:39:02;101350.47;;;14.19;88.58
46942;BME280;32676;52.630;4.896;2022-10-22T02:41:29;101357.47;;;14.20;88.53
46942;BME280;32676;52.630;4.896;2022-10-22T02:43:56;101367.06;;;14.23;88.05
46942;BME280;32676;52.630;4.896;2022-10-22T02:46:23;101374.88;;;14.26;88.30
46942;BME280;32676;52.630;4.896;2022-10-22T02:48:50;101381.94;;;14.25;87.94
46942;BME280;32676;52.630;4.896;2022-10-22T02:51:18;101368.16;;;14.17;87.74
46942;BME280;32676;52.630;4.896;2022-10-22T02:53:45;101392.34;;;14.30;87.86
46942;BME280;32676;52.630;4.896;2022-10-22T02:56:11;101395.00;;;14.30;87.45
46942;BME280;32676;52.630;4.896;2022-10-22T02:58:38;101388.81;;;14.29;87.21
46942;BME280;32676;52.630;4.896;2022-10-22T03:01:04;101386.25;;;14.28;87.52
46942;BME280;32676;52.630;4.896;2022-10-22T03:03:31;101379.25;;;14.27;86.98
46942;BME280;32676;52.630;4.896;2022-10-22T03:05:57;101373.09;;;14.26;87.25
46942;BME280;32676;52.630;4.896;2022-10-22T03:08:25;101366.13;;;14.24;86.95
46942;BME280;32676;52.630;4.896;2022-10-22T03:10:52;101358.31;;;14.20;86.71
46942;BME280;32676;52.630;4.896;2022-10-22T03:13:18;101341.72;;;14.17;86.56
46942;BME280;32676;52.630;4.896;2022-10-22T03:15:47;101339.97;;;14.17;87.04
46942;BME280;32676;52.630;4.896;2022-10-22T03:18:13;101342.59;;;14.17;86.58
46942;BME280;32676;52.630;4.896;2022-10-22T03:20:40;101326.84;;;14.14;87.00
46942;BME280;32676;52.630;4.896;2022-10-22T03:23:06;101342.59;;;14.17;86.96
46942;BME280;32676;52.630;4.896;2022-10-22T03:25:34;101323.31;;;14.15;86.72
46942;BME280;32676;52.630;4.896;2022-10-22T03:28:03;101319.84;;;14.13;87.03
46942;BME280;32676;52.630;4.896;2022-10-22T03:30:30;101290.31;;;14.02;86.78
46942;BME280;32676;52.630;4.896;2022-10-22T03:32:57;101304.16;;;14.09;86.68
46942;BME280;32676;52.630;4.896;2022-10-22T03:35:23;101304.13;;;14.10;86.70
46942;BME280;32676;52.630;4.896;2022-10-22T03:37:50;101302.31;;;14.11;87.04
46942;BME280;32676;52.630;4.896;2022-10-22T03:40:17;101297.94;;;14.10;87.13
46942;BME280;32676;52.630;4.896;2022-10-22T03:42:45;101276.22;;;14.03;87.02
46942;BME280;32676;52.630;4.896;2022-10-22T03:45:12;101257.28;;;13.92;86.83
46942;BME280;32676;52.630;4.896;2022-10-22T03:47:38;101269.13;;;14.04;87.02
46942;BME280;32676;52.630;4.896;2022-10-22T03:50:06;101265.75;;;14.00;87.04
46942;BME280;32676;52.630;4.896;2022-10-22T03:52:35;101266.53;;;14.02;87.16
46942;BME280;32676;52.630;4.896;2022-10-22T03:55:02;101270.94;;;14.03;86.92
46942;BME280;32676;52.630;4.896;2022-10-22T03:57:28;101275.34;;;14.02;87.06
46942;BME280;32676;52.630;4.896;2022-10-22T03:59:56;101268.28;;;14.03;87.13
46942;BME280;32676;52.630;4.896;2022-10-22T04:02:23;101270.06;;;14.02;86.90
46942;BME280;32676;52.630;4.896;2022-10-22T04:04:49;101259.56;;;14.01;86.63
46942;BME280;32676;52.630;4.896;2022-10-22T04:07:15;101250.84;;;13.99;86.97
46942;BME280;32676;52.630;4.896;2022-10-22T04:09:42;101256.13;;;13.99;86.71
46942;BME280;32676;52.630;4.896;2022-10-22T04:12:08;101249.91;;;14.00;86.79
46942;BME280;32676;52.630;4.896;2022-10-22T04:14:35;101244.66;;;13.98;87.05
46942;BME280;32676;52.630;4.896;2022-10-22T04:17:02;101254.34;;;13.99;87.23
46942;BME280;32676;52.630;4.896;2022-10-22T04:19:29;101255.25;;;13.98;87.01
46942;BME280;32676;52.630;4.896;2022-10-22T04:21:56;101243.81;;;13.98;87.29
46942;BME280;32676;52.630;4.896;2022-10-22T04:24:23;101246.47;;;13.98;87.41
46942;BME280;32676;52.630;4.896;2022-10-22T04:26:52;101238.69;;;13.93;87.23
46942;BME280;32676;52.630;4.896;2022-10-22T04:29:19;101245.59;;;13.97;87.42
46942;BME280;32676;52.630;4.896;2022-10-22T04:31:45;101232.56;;;13.93;87.50
46942;BME280;32676;52.630;4.896;2022-10-22T04:34:13;101244.72;;;13.97;87.35
46942;BME280;32676;52.630;4.896;2022-10-22T04:36:40;101243.81;;;13.98;87.57
46942;BME280;32676;52.630;4.896;2022-10-22T04:39:06;101246.47;;;13.98;87.53
46942;BME280;32676;52.630;4.896;2022-10-22T04:41:34;101250.00;;;13.97;87.67
46942;BME280;32676;52.630;4.896;2022-10-22T04:44:01;101246.47;;;13.98;87.34
46942;BME280;32676;52.630;4.896;2022-10-22T04:46:30;101239.44;;;13.97;87.49
46942;BME280;32676;52.630;4.896;2022-10-22T04:48:57;101246.47;;;13.98;87.65
46942;BME280;32676;52.630;4.896;2022-10-22T04:51:25;101247.47;;;13.95;87.47
46942;BME280;32676;52.630;4.896;2022-10-22T04:53:53;101236.25;;;13.89;87.46
46942;BME280;32676;52.630;4.896;2022-10-22T04:56:21;101247.25;;;14.00;87.45
46942;BME280;32676;52.630;4.896;2022-10-22T04:58:51;101245.56;;;13.99;87.56
46942;BME280;32676;52.630;4.896;2022-10-22T05:01:20;101253.47;;;13.99;87.17
46942;BME280;32676;52.630;4.896;2022-10-22T05:03:48;101260.47;;;14.00;87.12
46942;BME280;32676;52.630;4.896;2022-10-22T05:06:15;101242.22;;;13.94;87.30
46942;BME280;32676;52.630;4.896;2022-10-22T05:08:43;101255.19;;;14.00;87.57
46942;BME280;32676;52.630;4.896;2022-10-22T05:11:11;101258.75;;;13.99;87.51
46942;BME280;32676;52.630;4.896;2022-10-22T05:13:37;101260.47;;;14.00;87.17
46942;BME280;32676;52.630;4.896;2022-10-22T05:16:04;101222.25;;;13.87;87.05
46942;BME280;32676;52.630;4.896;2022-10-22T05:18:33;101230.72;;;13.95;87.32
46942;BME280;32676;52.630;4.896;2022-10-22T05:20:59;101217.72;;;13.90;87.08
46942;BME280;32676;52.630;4.896;2022-10-22T05:23:25;101222.00;;;13.93;87.26
46942;BME280;32676;52.630;4.896;2022-10-22T05:25:54;101220.28;;;13.92;87.28
46942;BME280;32676;52.630;4.896;2022-10-22T05:28:20;101208.06;;;13.89;87.23
46942;BME280;32676;52.630;4.896;2022-10-22T05:30:52;101180.22;;;13.80;87.14
46942;BME280;32676;52.630;4.896;2022-10-22T05:33:19;101192.41;;;13.85;87.36
46942;BME280;32676;52.630;4.896;2022-10-22T05:35:46;101175.81;;;13.81;87.26
46942;BME280;32676;52.630;4.896;2022-10-22T05:38:13;101164.38;;;13.80;87.28
46942;BME280;32676;52.630;4.896;2022-10-22T05:40:39;101149.78;;;13.72;87.01
46942;BME280;32676;52.630;4.896;2022-10-22T05:43:07;101139.94;;;13.75;87.18
46942;BME280;32676;52.630;4.896;2022-10-22T05:45:35;101124.22;;;13.72;87.01
46942;BME280;32676;52.630;4.896;2022-10-22T05:48:01;101110.34;;;13.67;87.20
46942;BME280;32676;52.630;4.896;2022-10-22T05:50:28;101102.47;;;13.66;87.11
46942;BME280;32676;52.630;4.896;2022-10-22T05:52:54;101094.59;;;13.64;87.42
46942;BME280;32676;52.630;4.896;2022-10-22T05:55:21;101085.16;;;13.58;87.17
46942;BME280;32676;52.630;4.896;2022-10-22T05:57:47;101083.31;;;13.60;87.17
46942;BME280;32676;52.630;4.896;2022-10-22T06:00:16;101075.47;;;13.59;87.18
46942;BME280;32676;52.630;4.896;2022-10-22T06:02:42;101061.59;;;13.54;87.46
46942;BME280;32676;52.630;4.896;2022-10-22T06:05:09;101054.47;;;13.56;87.22
46942;BME280;32676;52.630;4.896;2022-10-22T06:07:35;101049.31;;;13.53;87.58
46942;BME280;32676;52.630;4.896;2022-10-22T06:10:02;101035.44;;;13.48;87.21
46942;BME280;32676;52.630;4.896;2022-10-22T06:12:29;101019.84;;;13.41;87.34
46942;BME280;32676;52.630;4.896;2022-10-22T06:14:55;101035.31;;;13.51;87.34
46942;BME280;32676;52.630;4.896;2022-10-22T06:17:23;101035.44;;;13.48;87.91
46942;BME280;32676;52.630;4.896;2022-10-22T06:19:49;101040.59;;;13.51;87.56
46942;BME280;32676;52.630;4.896;2022-10-22T06:22:16;101033.59;;;13.50;87.82
46942;BME280;32676;52.630;4.896;2022-10-22T06:24:42;101026.59;;;13.49;87.74
46942;BME280;32676;52.630;4.896;2022-10-22T06:27:09;101022.22;;;13.48;87.63
46942;BME280;32676;52.630;4.896;2022-10-22T06:29:35;101031.88;;;13.49;87.69
46942;BME280;32676;52.630;4.896;2022-10-22T06:32:02;101037.94;;;13.51;88.06
46942;BME280;32676;52.630;4.896;2022-10-22T06:34:30;101037.28;;;13.46;87.85
46942;BME280;32676;52.630;4.896;2022-10-22T06:36:56;101056.31;;;13.54;87.98
46942;BME280;32676;52.630;4.896;2022-10-22T06:39:22;101059.75;;;13.56;88.20
46942;BME280;32676;52.630;4.896;2022-10-22T06:41:49;101070.31;;;13.56;88.18
46942;BME280;32676;52.630;4.896;2022-10-22T06:44:17;101098.19;;;13.63;87.84
46942;BME280;32676;52.630;4.896;2022-10-22T06:46:44;101112.19;;;13.65;88.17
46942;BME280;32676;52.630;4.896;2022-10-22T06:49:12;101175.06;;;13.77;87.99
46942;BME280;32676;52.630;4.896;2022-10-22T06:51:41;101214.13;;;13.91;87.73
46942;BME280;32676;52.630;4.896;2022-10-22T06:54:07;101253.59;;;13.96;87.85
46942;BME280;32676;52.630;4.896;2022-10-22T06:56:34;101289.22;;;14.08;87.25
46942;BME280;32676;52.630;4.896;2022-10-22T06:59:00;101305.81;;;14.11;87.17
46942;BME280;32676;52.630;4.896;2022-10-22T07:01:30;101352.19;;;14.20;87.10
46942;BME280;32676;52.630;4.896;2022-10-22T07:03:58;101372.38;;;14.23;86.73
46942;BME280;32676;52.630;4.896;2022-10-22T07:06:25;101408.88;;;14.35;86.57
46942;BME280;32676;52.630;4.896;2022-10-22T07:08:54;101442.97;;;14.43;86.29
46942;BME280;32676;52.630;4.896;2022-10-22T07:11:23;101472.66;;;14.49;85.97
46942;BME280;32676;52.630;4.896;2022-10-22T07:13:50;101483.25;;;14.49;85.97
46942;BME280;32676;52.630;4.896;2022-10-22T07:16:18;101514.69;;;14.57;85.56
46942;BME280;32676;52.630;4.896;2022-10-22T07:18:45;101536.50;;;14.64;85.44
46942;BME280;32676;52.630;4.896;2022-10-22T07:21:13;101547.09;;;14.64;85.34
46942;BME280;32676;52.630;4.896;2022-10-22T07:23:41;101568.84;;;14.72;85.26
46942;BME280;32676;52.630;4.896;2022-10-22T07:26:11;101549.16;;;14.55;84.83
46942;BME280;32676;52.630;4.896;2022-10-22T07:28:38;101595.97;;;14.77;84.53
46942;BME280;32676;52.630;4.896;2022-10-22T07:31:06;101629.22;;;14.84;84.66
46942;BME280;32676;52.630;4.896;2022-10-22T07:33:33;101656.31;;;14.91;84.74
46942;BME280;32676;52.630;4.896;2022-10-22T07:36:01;101679.97;;;14.95;84.42
46942;BME280;32676;52.630;4.896;2022-10-22T07:38:28;101693.88;;;15.01;84.57
46942;BME280;32676;52.630;4.896;2022-10-22T07:40:55;101703.66;;;14.98;84.65
46942;BME280;32676;52.630;4.896;2022-10-22T07:43:23;101694.13;;;14.94;84.19
46942;BME280;32676;52.630;4.896;2022-10-22T07:45:50;101714.84;;;15.07;84.54
46942;BME280;32676;52.630;4.896;2022-10-22T07:48:17;101732.41;;;15.09;84.38
46942;BME280;32676;52.630;4.896;2022-10-22T07:50:43;101739.38;;;15.12;84.20
46942;BME280;32676;52.630;4.896;2022-10-22T07:53:10;101737.13;;;15.01;83.93
46942;BME280;32676;52.630;4.896;2022-10-22T07:55:36;101773.56;;;15.18;83.89
46942;BME280;32676;52.630;4.896;2022-10-22T07:58:03;101776.22;;;15.18;83.70
46942;BME280;32676;52.630;4.896;2022-10-22T08:00:31;101777.00;;;15.20;83.98
46942;BME280;32676;52.630;4.896;2022-10-22T08:02:57;101777.94;;;15.19;83.59
46942;BME280;32676;52.630;4.896;2022-10-22T08:05:23;101770.09;;;15.16;83.52
46942;BME280;32676;52.630;4.896;2022-10-22T08:07:50;101762.28;;;15.13;83.63
46942;BME280;32676;52.630;4.896;2022-10-22T08:10:17;101767.56;;;15.13;83.68
46942;BME280;32676;52.630;4.896;2022-10-22T08:12:43;101781.41;;;15.21;83.59
46942;BME280;32676;52.630;4.896;2022-10-22T08:15:10;101782.25;;;15.22;83.74
46942;BME280;32676;52.630;4.896;2022-10-22T08:17:37;101783.25;;;15.19;83.58
46942;BME280;32676;52.630;4.896;2022-10-22T08:20:05;101792.78;;;15.23;84.03
46942;BME280;32676;52.630;4.896;2022-10-22T08:22:31;101798.91;;;15.25;84.01
46942;BME280;32676;52.630;4.896;2022-10-22T08:24:58;101789.34;;;15.21;84.01
46942;BME280;32676;52.630;4.896;2022-10-22T08:27:25;101766.66;;;15.14;84.25
46942;BME280;32676;52.630;4.896;2022-10-22T08:29:51;101767.34;;;15.19;84.85
46942;BME280;32676;52.630;4.896;2022-10-22T08:32:18;101770.91;;;15.18;85.20
46942;BME280;32676;52.630;4.896;2022-10-22T08:34:45;101773.47;;;15.21;85.29
46942;BME280;32676;52.630;4.896;2022-10-22T08:37:12;101768.38;;;15.15;85.50
46942;BME280;32676;52.630;4.896;2022-10-22T08:39:38;101784.91;;;15.22;85.83
46942;BME280;32676;52.630;4.896;2022-10-22T08:42:25;101779.66;;;15.20;86.11
46942;BME280;32676;52.630;4.896;2022-10-22T08:45:03;101765.63;;;15.18;86.29
46942;BME280;32676;52.630;4.896;2022-10-22T08:47:44;101749.84;;;15.15;86.56
46942;BME280;32676;52.630;4.896;2022-10-22T08:50:20;101751.69;;;15.13;86.29
46942;BME280;32676;52.630;4.896;2022-10-22T08:52:52;101764.75;;;15.18;86.50
46942;BME280;32676;52.630;4.896;2022-10-22T08:55:22;101783.34;;;15.16;86.72
46942;BME280;32676;52.630;4.896;2022-10-22T08:57:54;101818.13;;;15.30;86.77
46942;BME280;32676;52.630;4.896;2022-10-22T09:00:29;101844.38;;;15.36;86.54
46942;BME280;32676;52.630;4.896;2022-10-22T09:03:06;101867.09;;;15.44;86.79
46942;BME280;32676;52.630;4.896;2022-10-22T09:05:45;101888.16;;;15.47;86.54
46942;BME280;32676;52.630;4.896;2022-10-22T09:08:15;101923.31;;;15.52;86.58
46942;BME280;32676;52.630;4.896;2022-10-22T09:10:45;101950.34;;;15.62;86.63
46942;BME280;32676;52.630;4.896;2022-10-22T09:13:17;101954.03;;;15.58;86.94
46942;BME280;32676;52.630;4.896;2022-10-22T09:15:44;101957.38;;;15.63;86.84
46942;BME280;32676;52.630;4.896;2022-10-22T09:18:22;101969.66;;;15.65;87.02
46942;BME280;32676;52.630;4.896;2022-10-22T09:20:57;101998.56;;;15.71;86.95
46942;BME280;32676;52.630;4.896;2022-10-22T09:23:32;102019.59;;;15.78;86.95
46942;BME280;32676;52.630;4.896;2022-10-22T09:26:05;102044.25;;;15.80;86.95
46942;BME280;32676;52.630;4.896;2022-10-22T09:28:37;102070.53;;;15.86;87.09
46942;BME280;32676;52.630;4.896;2022-10-22T09:31:09;102095.03;;;15.94;86.95
46942;BME280;32676;52.630;4.896;2022-10-22T09:33:36;102094.34;;;15.87;86.55
46942;BME280;32676;52.630;4.896;2022-10-22T09:36:04;102101.34;;;15.90;86.55
46942;BME280;32676;52.630;4.896;2022-10-22T09:38:37;102122.28;;;15.98;86.78
46942;BME280;32676;52.630;4.896;2022-10-22T09:41:04;102125.72;;;16.01;86.87
46942;BME280;32676;52.630;4.896;2022-10-22T09:43:31;102126.75;;;15.97;86.64
46942;BME280;32676;52.630;4.896;2022-10-22T09:46:02;102130.88;;;16.04;86.77
46942;BME280;32676;52.630;4.896;2022-10-22T09:48:31;102121.44;;;15.97;86.66
46942;BME280;32676;52.630;4.896;2022-10-22T09:51:05;102113.47;;;15.97;86.62
46942;BME280;32676;52.630;4.896;2022-10-22T09:53:36;102117.84;;;15.98;86.46
46942;BME280;32676;52.630;4.896;2022-10-22T09:56:08;102121.31;;;16.00;86.28
46942;BME280;32676;52.630;4.896;2022-10-22T09:58:41;102130.06;;;16.02;86.14
46942;BME280;32676;52.630;4.896;2022-10-22T10:01:16;102097.66;;;15.94;86.23
46942;BME280;32676;52.630;4.896;2022-10-22T10:03:43;102088.84;;;15.93;86.24
46942;BME280;32676;52.630;4.896;2022-10-22T10:06:11;102054.63;;;15.86;86.27
46942;BME280;32676;52.630;4.896;2022-10-22T10:08:37;102058.22;;;15.85;85.95
46942;BME280;32676;52.630;4.896;2022-10-22T10:11:08;102073.91;;;15.91;85.97
46942;BME280;32676;52.630;4.896;2022-10-22T10:13:42;102086.13;;;15.95;85.69
46942;BME280;32676;52.630;4.896;2022-10-22T10:16:20;102104.53;;;16.00;85.72
46942;BME280;32676;52.630;4.896;2022-10-22T10:19:00;102108.09;;;15.99;85.33
46942;BME280;32676;52.630;4.896;2022-10-22T10:21:37;102128.22;;;16.04;85.29
46942;BME280;32676;52.630;4.896;2022-10-22T10:24:16;102148.50;;;16.07;84.98
46942;BME280;32676;52.630;4.896;2022-10-22T10:26:51;102193.22;;;16.18;84.82
46942;BME280;32676;52.630;4.896;2022-10-22T10:29:31;102206.28;;;16.22;84.83
46942;BME280;32676;52.630;4.896;2022-10-22T10:32:11;102228.28;;;16.26;84.87
46942;BME280;32676;52.630;4.896;2022-10-22T10:34:45;102233.59;;;16.26;85.00
46942;BME280;32676;52.630;4.896;2022-10-22T10:37:19;102252.78;;;16.34;85.09
46942;BME280;32676;52.630;4.896;2022-10-22T10:39:58;102276.56;;;16.37;85.33
46942;BME280;32676;52.630;4.896;2022-10-22T10:42:32;102307.38;;;16.41;85.53
46942;BME280;32676;52.630;4.896;2022-10-22T10:45:11;102325.00;;;16.42;85.62
46942;BME280;32676;52.630;4.896;2022-10-22T10:48:00;102373.09;;;16.60;85.04
46942;BME280;32676;52.630;4.896;2022-10-22T10:50:39;102395.06;;;16.65;84.90
46942;BME280;32676;52.630;4.896;2022-10-22T10:53:16;102425.78;;;16.72;84.62
46942;BME280;32676;52.630;4.896;2022-10-22T10:55:54;102447.75;;;16.77;84.27
46942;BME280;32676;52.630;4.896;2022-10-22T10:58:29;102487.41;;;16.82;83.56
46942;BME280;32676;52.630;4.896;2022-10-22T11:01:02;102546.34;;;16.95;83.55
46942;BME280;32676;52.630;4.896;2022-10-22T11:03:39;102607.78;;;17.12;83.62
46942;BME280;32676;52.630;4.896;2022-10-22T11:06:13;102650.94;;;17.19;83.38
46942;BME280;32676;52.630;4.896;2022-10-22T11:08:45;102706.25;;;17.36;82.77
46942;BME280;32676;52.630;4.896;2022-10-22T11:11:17;102746.72;;;17.44;82.14
46942;BME280;32676;52.630;4.896;2022-10-22T11:13:49;102747.81;;;17.37;81.42
46942;BME280;32676;52.630;4.896;2022-10-22T11:16:21;102753.69;;;17.48;80.65
46942;BME280;32676;52.630;4.896;2022-10-22T11:18:54;102718.72;;;17.34;79.90
46942;BME280;32676;52.630;4.896;2022-10-22T11:21:27;102666.56;;;17.30;80.56
46942;BME280;32676;52.630;4.896;2022-10-22T11:24:01;102588.25;;;17.13;81.26
46942;BME280;32676;52.630;4.896;2022-10-22T11:26:32;102572.44;;;17.10;81.61
46942;BME280;32676;52.630;4.896;2022-10-22T11:29:04;102568.03;;;17.09;81.97
46942;BME280;32676;52.630;4.896;2022-10-22T11:31:35;102579.47;;;17.11;82.10
46942;BME280;32676;52.630;4.896;2022-10-22T11:34:05;102601.47;;;17.15;82.28
46942;BME280;32676;52.630;4.896;2022-10-22T11:36:36;102658.56;;;17.30;82.78
46942;BME280;32676;52.630;4.896;2022-10-22T11:39:05;102684.19;;;17.32;83.14
46942;BME280;32676;52.630;4.896;2022-10-22T11:41:33;102762.38;;;17.53;83.56
46942;BME280;32676;52.630;4.896;2022-10-22T11:44:10;102825.81;;;17.65;83.61
46942;BME280;32676;52.630;4.896;2022-10-22T11:46:44;102876.88;;;17.77;83.54
46942;BME280;32676;52.630;4.896;2022-10-22T11:49:22;102910.31;;;17.87;82.43
46942;BME280;32676;52.630;4.896;2022-10-22T11:51:50;102949.97;;;17.95;81.79
46942;BME280;32676;52.630;4.896;2022-10-22T11:54:31;102972.06;;;17.98;80.31
46942;BME280;32676;52.630;4.896;2022-10-22T11:57:17;102959.69;;;17.97;78.79
46942;BME280;32676;52.630;4.896;2022-10-22T11:59:48;102978.19;;;18.00;78.32
46942;BME280;32676;52.630;4.896;2022-10-22T12:02:29;102993.09;;;18.06;78.51
46942;BME280;32676;52.630;4.896;2022-10-22T12:05:32;102968.47;;;17.99;78.21
46942;BME280;32676;52.630;4.896;2022-10-22T12:08:04;102929.69;;;17.92;77.29
46942;BME280;32676;52.630;4.896;2022-10-22T12:10:48;102911.97;;;17.91;77.48
46942;BME280;32676;52.630;4.896;2022-10-22T12:13:21;102880.28;;;17.82;77.74
46942;BME280;32676;52.630;4.896;2022-10-22T12:15:50;102864.34;;;17.82;77.83
46942;BME280;32676;52.630;4.896;2022-10-22T12:18:22;102860.81;;;17.81;77.83
46942;BME280;32676;52.630;4.896;2022-10-22T12:20:51;102857.38;;;17.78;77.82
46942;BME280;32676;52.630;4.896;2022-10-22T12:23:18;102860.84;;;17.80;77.99
46942;BME280;32676;52.630;4.896;2022-10-22T12:25:47;102832.63;;;17.76;76.59
46942;BME280;32676;52.630;4.896;2022-10-22T12:28:14;102799.16;;;17.69;75.76
46942;BME280;32676;52.630;4.896;2022-10-22T12:30:41;102785.03;;;17.67;74.95
46942;BME280;32676;52.630;4.896;2022-10-22T12:33:19;102766.50;;;17.63;74.24
46942;BME280;32676;52.630;4.896;2022-10-22T12:35:47;102739.19;;;17.58;73.94
46942;BME280;32676;52.630;4.896;2022-10-22T12:38:19;102710.97;;;17.54;73.86
46942;BME280;32676;52.630;4.896;2022-10-22T12:40:48;102688.97;;;17.49;73.77
46942;BME280;32676;52.630;4.896;2022-10-22T12:43:17;102641.66;;;17.34;73.33
46942;BME280;32676;52.630;4.896;2022-10-22T12:45:46;102624.75;;;17.35;73.88
46942;BME280;32676;52.630;4.896;2022-10-22T12:48:15;102621.28;;;17.33;74.27
46942;BME280;32676;52.630;4.896;2022-10-22T12:50:45;102597.41;;;17.31;74.15
46942;BME280;32676;52.630;4.896;2022-10-22T12:53:14;102589.50;;;17.30;74.30
46942;BME280;32676;52.630;4.896;2022-10-22T12:55:45;102579.28;;;17.17;73.95
46942;BME280;32676;52.630;4.896;2022-10-22T12:58:16;102607.97;;;17.34;73.94
46942;BME280;32676;52.630;4.896;2022-10-22T13:00:44;102618.53;;;17.36;74.11
46942;BME280;32676;52.630;4.896;2022-10-22T13:03:23;102635.13;;;17.42;74.48
46942;BME280;32676;52.630;4.896;2022-10-22T13:05:50;102680.03;;;17.52;74.43